Station: Mount Gambier

  Atmospheric Gas Attenuation - ITU Rec 676-11   --------------- db/100km ---------------
Date Time Temp RH % AH g/m3 Dew Point Wind Direction Speed kph Gust kph Barometer mB Rainfall Since 9am 24GHz 47GHz 76GHz 122GHz 134GHz 241GHz
14 23:50 6.1 97 7.09 5.7 0 0 1020.3 2.6 16.7 25.9 37.7 98.6 87.8 300.1
14 23:40 6.2 97 7.14 5.8 0 0 1020.3 2.6 16.8 26.0 37.8 99.0 88.3 302.1
14 23:30 6.4 97 7.23 6 0 0 1020.3 2.6 17.0 26.1 38.1 99.8 89.4 305.8
14 23:20 6.2 97 7.14 5.8 0 0 1020.3 2.6 16.8 26.0 37.8 99.0 88.3 302.1
14 23:10 6.2 97 7.14 5.8 0 0 1020.2 2.6 16.8 26.0 37.8 99.0 88.3 302.1
14 23:00 6.1 96 7.02 5.5 0 0 1020.2 2.6 16.5 25.8 37.4 97.8 86.8 296.7
14 22:50 6.1 96 7.02 5.5 0 0 1020.2 2.6 16.5 25.8 37.4 97.8 86.8 296.7
14 22:40 6.3 96 7.11 5.7 0 0 1020.2 2.6 16.7 25.9 37.6 98.5 87.8 300.3
14 22:30 6.3 96 7.11 5.7 0 4 1020.3 2.6 16.7 25.9 37.7 98.5 87.8 300.3
14 22:20 6.7 96 7.3 6.1 2 4 1020.1 2.6 17.1 26.1 38.3 100.1 90.0 307.9
14 22:10 6.4 96 7.16 5.8 6 6 1020.1 2.6 16.8 25.9 37.8 99.0 88.4 302.3
14 22:00 6.7 96 7.3 6.1 7 7 1020 2.6 17.1 26.1 38.2 100.1 90.0 307.9
14 21:50 7 96 7.44 6.4 7 7 1019.9 2.6 17.4 26.2 38.7 101.3 91.6 313.5
14 21:40 7.1 96 7.49 6.5 9 9 1019.9 2.6 17.5 26.3 38.9 101.8 92.1 315.6
14 21:30 7 96 7.44 6.4 9 11 1019.8 2.6 17.4 26.2 38.7 101.3 91.6 313.5
14 21:20 6.7 96 7.3 6.1 9 11 1019.8 2.6 17.1 26.1 38.2 100.1 90.0 307.9
14 21:10 6.6 96 7.25 6 0 6 1019.8 2.6 17.0 26.0 38.1 99.7 89.4 305.8
14 21:00 6.7 96 7.3 6.1 0 0 1019.7 2.6 17.1 26.1 38.2 100.1 89.9 307.8
14 20:50 6.7 96 7.3 6.1 0 0 1019.8 2.6 17.1 26.1 38.2 100.1 90.0 307.9
14 20:40 6.7 96 7.3 6.1 0 0 1019.7 2.6 17.1 26.1 38.2 100.1 89.9 307.8
14 20:30 6.7 95 7.22 6 0 0 1019.8 2.6 16.9 25.9 37.9 99.2 88.8 304.0
14 20:20 6.9 95 7.32 6.2 0 0 1019.7 2.6 17.2 26.0 38.2 100.1 90.0 308.0
14 20:10 7.2 96 7.54 6.6 0 0 1019.7 2.6 17.6 26.3 39.0 102.2 92.7 317.6
14 20:00 6.9 95 7.32 6.2 0 0 1019.5 2.6 17.2 26.0 38.2 100.1 90.0 308.0
14 19:50 7.4 95 7.56 6.7 0 0 1019.4 2.6 17.6 26.3 39.0 102.1 92.7 317.6
14 19:40 7.5 95 7.61 6.8 0 0 1019.4 2.6 17.8 26.3 39.1 102.5 93.3 319.7
14 19:30 7.5 95 7.61 6.8 0 0 1019.2 2.6 17.8 26.3 39.1 102.5 93.3 319.6
14 19:20 7.5 95 7.61 6.8 0 0 1019.1 2.6 17.8 26.3 39.1 102.5 93.3 319.6
14 19:10 7.6 95 7.66 6.9 6 7 1018.9 2.6 17.9 26.4 39.3 102.9 93.8 321.6
14 19:00 7.5 95 7.61 6.8 7 9 1018.8 2.6 17.8 26.3 39.1 102.5 93.2 319.5
14 18:50 7.4 94 7.48 6.5 7 7 1018.8 2.6 17.5 26.1 38.6 101.1 91.6 313.6
14 18:40 7.6 94 7.58 6.7 7 7 1018.7 2.6 17.7 26.2 38.9 102.0 92.7 317.6
14 18:30 7.9 94 7.72 7 9 9 1018.6 2.6 18.0 26.4 39.4 103.2 94.3 323.2
14 18:20 8.1 94 7.82 7.2 0 0 1018.6 2.6 18.2 26.5 39.7 104.0 95.4 327.2
14 18:10 8.1 94 7.82 7.2 0 0 1018.5 2.6 18.2 26.5 39.7 104.0 95.4 327.2
14 18:00 8.2 94 7.88 7.3 0 4 1018.5 2.6 18.3 26.6 39.9 104.6 96.1 329.7
14 17:50 8.2 94 7.88 7.3 2 4 1018.4 2.6 18.3 26.6 39.9 104.5 96.1 329.7
14 17:40 8.3 94 7.93 7.4 7 7 1018.3 2.6 18.4 26.6 40.0 105.0 96.7 331.6
14 17:30 8.4 93 7.89 7.3 7 7 1018.2 2.6 18.3 26.5 39.8 104.4 96.0 329.2
14 17:20 8.5 93 7.94 7.4 7 7 1018.1 2.6 18.4 26.6 40.0 104.8 96.5 331.2
14 17:10 8.6 93 7.99 7.5 7 7 1018 2.6 18.5 26.6 40.1 105.2 97.1 333.2
14 17:00 8.7 93 8.05 7.6 9 9 1018 2.6 18.6 26.7 40.3 105.8 97.8 335.7
14 16:50 8.8 93 8.1 7.7 7 9 1018 2.6 18.8 26.7 40.5 106.2 98.4 337.7
14 16:40 8.9 93 8.15 7.8 9 9 1018 2.6 18.9 26.8 40.7 106.6 99.0 339.7
14 16:30 8.9 92 8.06 7.7 9 11 1017.9 2.6 18.7 26.6 40.3 105.6 97.7 335.3
14 16:20 9.1 92 8.17 7.9 9 9 1017.9 2.4 18.9 26.8 40.6 106.6 99.0 339.8
14 16:10 9.1 92 8.17 7.9 9 11 1017.8 2.4 18.9 26.8 40.6 106.5 99.0 339.7
14 16:00 9.1 92 8.17 7.9 11 13 1017.8 2.4 18.9 26.8 40.6 106.5 99.0 339.7
14 15:50 9.2 92 8.22 8 11 13 1017.8 2.4 19.0 26.8 40.8 107.0 99.5 341.7
14 15:40 9.1 92 8.17 7.9 11 13 1017.8 2.2 18.9 26.8 40.6 106.5 99.0 339.7
14 15:30 9.2 92 8.22 8 11 15 1017.8 2.2 19.0 26.8 40.8 107.0 99.5 341.7
14 15:20 9.2 92 8.22 8 11 15 1017.8 2.2 19.0 26.8 40.8 107.0 99.5 341.7
14 15:10 9.2 92 8.22 8 13 13 1017.8 2.2 19.0 26.8 40.8 107.0 99.5 341.7
14 15:00 9.1 92 8.17 7.9 11 13 1017.7 2.2 18.9 26.7 40.6 106.5 98.9 339.7
14 14:50 9.3 92 8.27 8.1 13 15 1017.6 2 19.1 26.9 40.9 107.4 100.1 343.7
14 14:40 9.2 92 8.22 8 13 13 1017.5 2 19.0 26.8 40.8 106.9 99.5 341.7
14 14:30 9 92 8.11 7.8 13 17 1017.4 2 18.8 26.7 40.4 106.0 98.2 337.2
14 14:20 9 92 8.11 7.8 13 15 1017.5 2 18.8 26.7 40.4 106.0 98.2 337.2
14 14:10 8.9 92 8.06 7.7 13 15 1017.5 1.8 18.7 26.6 40.2 105.5 97.7 335.2
14 14:00 8.8 92 8.01 7.6 15 17 1017.6 1.8 18.6 26.6 40.1 105.1 97.1 333.2
14 13:50 8.8 92 8.01 7.6 15 20 1017.6 1.6 18.6 26.6 40.1 105.1 97.1 333.2
14 13:40 8.7 92 7.96 7.5 15 17 1017.7 1.6 18.5 26.5 39.9 104.7 96.5 331.2
14 13:30 8.7 91 7.87 7.3 15 20 1017.7 1.4 18.3 26.4 39.6 103.7 95.3 326.9
14 13:20 8.6 91 7.82 7.2 17 22 1017.8 1.2 18.2 26.3 39.4 103.3 94.7 324.9
14 13:10 8.7 91 7.87 7.3 15 17 1017.9 1 18.3 26.4 39.6 103.7 95.3 326.9
14 13:00 8.8 92 8.01 7.6 13 19 1017.9 0.8 18.6 26.6 40.1 105.2 97.1 333.3
14 12:50 8.8 92 8.01 7.6 15 17 1017.9 0.8 18.6 26.6 40.1 105.2 97.1 333.3
14 12:40 8.7 91 7.87 7.3 13 13 1018 0.6 18.3 26.4 39.6 103.7 95.3 326.9
14 12:30 8.7 90 7.79 7.2 13 19 1018.1 0.4 18.1 26.2 39.2 102.8 94.2 323.1
14 12:20 8.9 90 7.89 7.4 15 17 1018.2 0.2 18.3 26.4 39.6 103.7 95.4 327.1
14 12:10 8.7 88 7.61 6.8 17 19 1018.3 0.2 17.7 25.9 38.5 100.9 91.8 314.5
14 12:00 8.7 88 7.61 6.8 17 20 1018.4 0.2 17.7 25.9 38.5 100.9 91.8 314.5
14 11:50 8.6 87 7.48 6.6 19 26 1018.4 0 17.4 25.8 38.0 99.6 90.1 308.7
14 11:40 8.7 87 7.53 6.7 17 19 1018.6 0 17.5 25.8 38.2 100.0 90.7 310.7
14 11:30 8.8 86 7.49 6.6 17 19 1018.7 0 17.4 25.7 38.0 99.4 90.0 308.5
14 11:20 8.8 84 7.31 6.2 17 19 1018.8 0 17.0 25.4 37.2 97.5 87.6 299.9
14 11:10 9 83 7.32 6.3 13 15 1019 0 17.1 25.4 37.2 97.3 87.5 299.7
14 11:00 9 83 7.32 6.3 15 17 1019.1 0 17.1 25.4 37.2 97.4 87.5 299.7
14 10:50 8.9 83 7.27 6.2 11 13 1019.2 0 17.0 25.4 37.0 96.9 87.0 297.7
14 10:40 8.8 84 7.31 6.2 13 13 1019.2 0 17.0 25.5 37.3 97.5 87.6 300.0
14 10:30 8.6 84 7.22 6.1 11 15 1019.3 0 16.9 25.4 37.0 96.8 86.6 296.5
14 10:20 8.5 84 7.17 6 13 17 1019.4 0 16.8 25.3 36.8 96.4 86.1 294.6
14 10:10 8.5 84 7.17 6 13 17 1019.5 0 16.8 25.3 36.8 96.4 86.1 294.6
14 10:00 8.4 85 7.21 6 13 15 1019.5 0 16.9 25.4 37.0 96.9 86.7 296.9
14 09:50 8.2 85 7.12 5.8 13 17 1019.5 0 16.7 25.3 36.8 96.2 85.7 293.4
14 09:40 8 85 7.03 5.6 13 15 1019.5 0 16.5 25.2 36.5 95.5 84.8 289.8
14 09:30 8 86 7.11 5.8 13 13 1019.5 0 16.7 25.4 36.8 96.3 85.8 293.6
14 09:20 8 86 7.11 5.8 13 13 1019.4 0 16.7 25.4 36.8 96.3 85.8 293.6
14 09:10 7.9 87 7.15 5.9 11 13 1019.3 0 16.7 25.4 37.0 96.9 86.5 295.9
14 09:00 7.7 87 7.06 5.7 13 17 1019.3 0 16.6 25.4 36.7 96.1 85.5 292.3
14 08:50 7.5 88 7.05 5.6 15 17 1019.3 0 16.5 25.4 36.8 96.3 85.6 292.6
14 08:40 7.3 88 6.96 5.4 11 15 1019.3 0 16.4 25.3 36.5 95.5 84.6 289.0
14 08:30 7.2 88 6.91 5.3 13 15 1019.3 0 16.3 25.2 36.4 95.1 84.0 287.0
14 08:20 7 88 6.82 5.2 13 15 1019.2 0 16.1 25.2 36.1 94.3 83.0 283.4
14 08:10 6.8 89 6.81 5.1 11 13 1019.2 0 16.1 25.2 36.1 94.5 83.0 283.7
14 08:00 6.5 89 6.68 4.8 9 9 1019.3 0 15.8 25.1 35.7 93.4 81.6 278.6
14 07:50 6.6 88 6.65 4.8 11 13 1019.3 0 15.7 25.0 35.6 92.9 81.1 276.8
14 07:40 6.6 88 6.65 4.8 11 11 1019.2 0 15.7 25.0 35.5 92.9 81.1 276.8
14 07:30 6.6 88 6.65 4.8 11 13 1019.2 0 15.7 25.0 35.5 92.9 81.1 276.8
14 07:20 6.7 88 6.69 4.9 11 13 1019.2 0 15.8 25.0 35.7 93.3 81.5 278.3

Last Refresh: 15-Jun-2024 00:02:41

Bureau of Meteorology